createdAt,value
2023-03-07T00:01:47.396Z,99152.19
2023-03-07T00:06:49.041Z,99150.72
2023-03-07T00:11:50.785Z,99139.44
2023-03-07T00:16:52.463Z,99141.75
2023-03-07T00:21:54.057Z,99131.94
2023-03-07T00:26:55.633Z,99128.63
2023-03-07T00:31:57.290Z,99116.56
2023-03-07T00:36:58.872Z,99111.56
2023-03-07T00:42:00.466Z,99105.91
2023-03-07T00:47:02.505Z,99099.44
2023-03-07T00:52:04.318Z,99101.94
2023-03-07T00:57:05.953Z,99089.03
2023-03-07T01:02:07.652Z,99087.53
2023-03-07T01:07:09.320Z,99073.81
2023-03-07T01:12:11.046Z,99079.16
2023-03-07T01:17:12.625Z,99060.81
2023-03-07T01:22:14.380Z,99073.31
2023-03-07T01:27:16.071Z,99067.06
2023-03-07T01:32:17.902Z,99080.41
2023-03-07T01:37:19.552Z,99076.72
2023-03-07T01:42:22.029Z,99090.53
2023-03-07T01:47:25.801Z,99112.06
2023-03-07T01:52:48.712Z,99139.97
2023-03-07T01:57:52.281Z,99139.78
2023-03-07T02:03:25.205Z,99132.69
2023-03-07T02:08:29.608Z,99118.75
2023-03-07T02:13:31.241Z,99115.41
2023-03-07T02:18:38.698Z,99110.00
2023-03-07T02:24:17.628Z,99099.81
2023-03-07T02:29:20.312Z,99097.31
2023-03-07T02:34:28.058Z,99101.88
2023-03-07T02:39:49.916Z,99090.03
2023-03-07T02:45:15.526Z,99089.81
2023-03-07T02:50:18.083Z,99074.59
2023-03-07T02:55:23.778Z,99076.66
2023-03-07T03:00:32.618Z,99068.53
2023-03-07T03:05:34.334Z,99067.50
2023-03-07T03:10:36.379Z,99052.09
2023-03-07T03:15:38.212Z,99045.00
2023-03-07T03:20:40.927Z,99039.78
2023-03-07T03:25:42.846Z,99040.38
2023-03-07T03:30:44.423Z,99036.03
2023-03-07T03:35:46.116Z,99030.16
2023-03-07T03:40:48.395Z,99029.34
2023-03-07T03:45:58.058Z,99030.16
2023-03-07T03:51:14.630Z,99012.28
2023-03-07T03:56:21.518Z,99003.72
2023-03-07T04:01:26.533Z,98992.88
2023-03-07T04:06:30.765Z,98987.47
2023-03-07T04:11:33.330Z,98981.44
2023-03-07T04:16:35.484Z,98981.66
2023-03-07T04:21:37.150Z,98968.09
2023-03-07T04:26:41.235Z,98965.19
2023-03-07T04:31:42.938Z,98953.50
2023-03-07T04:36:45.423Z,98939.56
2023-03-07T04:41:48.511Z,98940.78
2023-03-07T04:46:52.594Z,98935.53
2023-03-07T04:51:54.414Z,98935.91
2023-03-07T04:56:56.474Z,98923.84
2023-03-07T05:01:58.039Z,98909.63
2023-03-07T05:06:59.932Z,98902.72
2023-03-07T05:12:01.551Z,98890.63
2023-03-07T05:17:04.361Z,98891.47
2023-03-07T05:22:06.076Z,98886.41
2023-03-07T05:27:07.877Z,98878.28
2023-03-07T05:32:11.023Z,98880.19
2023-03-07T05:37:13.411Z,98865.38
2023-03-07T05:42:15.676Z,98871.41
2023-03-07T05:47:17.699Z,98859.50
2023-03-07T05:52:20.621Z,98846.56
2023-03-07T05:57:22.714Z,98845.53
2023-03-07T06:02:24.395Z,98838.81
2023-03-07T06:07:27.000Z,98830.47
2023-03-07T06:12:28.859Z,98835.28
2023-03-07T06:17:30.486Z,98832.81
2023-03-07T06:22:34.708Z,98827.59
2023-03-07T06:27:38.038Z,98824.47
2023-03-07T06:32:39.998Z,98830.63
2023-03-07T06:37:42.459Z,98847.19
2023-03-07T06:42:44.051Z,98839.16
2023-03-07T06:47:46.525Z,98825.69
2023-03-07T06:52:49.878Z,98829.97
2023-03-07T06:57:51.577Z,98822.38
2023-03-07T07:02:55.169Z,98821.59
2023-03-07T07:07:56.849Z,98825.69
2023-03-07T07:12:59.085Z,98829.75
2023-03-07T07:18:02.250Z,98830.72
2023-03-07T07:23:07.093Z,98830.19
2023-03-07T07:28:11.545Z,98833.16
2023-03-07T07:33:13.416Z,98813.97
2023-03-07T07:38:15.383Z,98814.69
2023-03-07T07:43:17.878Z,98807.88
2023-03-07T07:48:31.610Z,98798.81
2023-03-07T07:53:34.242Z,98801.09
2023-03-07T07:58:36.266Z,98795.31
2023-03-07T08:03:38.687Z,98781.59
2023-03-07T08:08:40.259Z,98765.72
2023-03-07T08:13:41.846Z,98768.00
2023-03-07T08:18:47.820Z,98764.09
2023-03-07T08:23:49.732Z,98743.06
2023-03-07T08:28:51.330Z,98754.41
2023-03-07T08:33:53.177Z,98755.31
2023-03-07T08:38:54.690Z,98762.63
2023-03-07T08:43:56.315Z,98736.25
2023-03-07T08:48:57.814Z,98737.47
2023-03-07T08:53:59.364Z,98725.75
2023-03-07T08:59:00.916Z,98735.69
2023-03-07T09:04:02.604Z,98734.00
2023-03-07T09:09:05.988Z,98733.78
2023-03-07T09:14:07.622Z,98728.47
2023-03-07T09:19:13.855Z,98729.66
2023-03-07T09:24:15.480Z,98733.72
2023-03-07T09:29:17.174Z,98737.81
2023-03-07T09:34:18.687Z,98721.66
2023-03-07T09:39:25.959Z,98706.94
2023-03-07T09:44:47.093Z,98703.81
2023-03-07T09:50:24.781Z,98707.78
2023-03-07T09:55:29.880Z,98691.50
2023-03-07T10:00:33.722Z,98683.91
2023-03-07T10:05:58.529Z,98662.50
2023-03-07T10:11:23.084Z,98666.19
2023-03-07T10:16:43.006Z,98669.19
2023-03-07T10:21:47.490Z,98656.06
2023-03-07T10:27:06.666Z,98663.69
2023-03-07T10:32:39.363Z,98648.84
2023-03-07T10:37:55.959Z,98621.97
2023-03-07T10:42:59.348Z,98593.47
2023-03-07T10:48:08.236Z,98591.09
2023-03-07T10:53:24.484Z,98588.75
2023-03-07T10:58:27.959Z,98555.88
2023-03-07T11:03:42.499Z,98557.94
2023-03-07T11:08:51.467Z,98550.41
2023-03-07T11:14:08.369Z,98552.34
2023-03-07T11:19:32.189Z,98550.72
2023-03-07T11:24:39.048Z,98534.75
2023-03-07T11:29:40.579Z,98498.69
2023-03-07T11:34:59.425Z,98526.56
2023-03-07T11:40:32.162Z,98517.09
2023-03-07T11:45:43.279Z,98530.19
2023-03-07T11:50:53.455Z,98512.22
2023-03-07T11:56:25.888Z,98516.31
2023-03-07T12:01:44.842Z,98511.97
2023-03-07T12:06:52.755Z,98492.00
2023-03-07T12:11:57.643Z,98513.38
2023-03-07T12:17:25.659Z,98466.91
2023-03-07T12:22:29.072Z,98476.22
2023-03-07T12:27:52.482Z,98453.47
2023-03-07T12:32:54.917Z,98453.13
2023-03-07T12:38:18.474Z,98463.25
2023-03-07T12:43:33.495Z,98420.00
2023-03-07T12:48:58.923Z,98446.28
2023-03-07T12:54:07.124Z,98442.50
2023-03-07T12:59:12.933Z,98451.78
2023-03-07T13:04:17.561Z,98436.72
2023-03-07T13:09:24.963Z,98439.94
2023-03-07T13:14:43.912Z,98427.16
2023-03-07T13:19:56.950Z,98430.53
2023-03-07T13:25:27.647Z,98450.50
2023-03-07T13:30:31.558Z,98446.41
2023-03-07T13:35:38.977Z,98441.81
2023-03-07T13:40:43.373Z,98422.22
2023-03-07T13:45:46.686Z,98424.00
2023-03-07T13:50:48.215Z,98441.56
2023-03-07T13:56:20.307Z,98466.78
2023-03-07T14:01:26.642Z,98472.56
2023-03-07T14:06:36.496Z,98480.47
2023-03-07T14:11:47.587Z,98465.28
2023-03-07T14:17:18.529Z,98487.63
2023-03-07T14:22:44.209Z,98493.06
2023-03-07T14:28:03.683Z,98480.44
2023-03-07T14:33:05.239Z,98480.16
2023-03-07T14:38:16.748Z,98481.34
2023-03-07T14:43:33.075Z,98484.59
2023-03-07T14:48:56.931Z,98479.41
2023-03-07T14:54:04.910Z,98498.78
2023-03-07T14:59:10.800Z,98504.03
2023-03-07T15:04:28.704Z,98519.94
2023-03-07T15:09:32.136Z,98517.78
2023-03-07T15:14:45.644Z,98505.28
2023-03-07T15:19:52.757Z,98492.03
2023-03-07T15:24:55.163Z,98488.53
2023-03-07T15:30:01.915Z,98505.81
2023-03-07T15:35:15.073Z,98558.50
2023-03-07T15:40:28.373Z,98548.28
2023-03-07T15:45:38.969Z,98557.19
2023-03-07T15:50:40.562Z,98564.50
2023-03-07T15:55:42.946Z,98566.31
2023-03-07T16:00:44.503Z,98556.81
2023-03-07T16:05:46.046Z,98560.34
2023-03-07T16:11:00.397Z,98561.03
2023-03-07T16:16:16.499Z,98561.47
2023-03-07T16:21:19.355Z,98559.59
2023-03-07T16:26:23.745Z,98565.97
2023-03-07T16:31:25.317Z,98570.75
2023-03-07T16:36:26.815Z,98578.91
2023-03-07T16:41:28.747Z,98572.25
2023-03-07T16:46:30.630Z,98565.47
2023-03-07T16:51:32.488Z,98577.34
2023-03-07T16:56:40.810Z,98583.44
2023-03-07T17:01:45.992Z,98586.56
2023-03-07T17:06:57.745Z,98589.88
2023-03-07T17:12:03.173Z,98599.75
2023-03-07T17:17:05.820Z,98584.91
2023-03-07T17:22:07.474Z,98594.84
2023-03-07T17:27:09.469Z,98607.50
2023-03-07T17:32:11.546Z,98624.31
2023-03-07T17:37:13.777Z,98644.38
2023-03-07T17:42:15.368Z,98653.84
2023-03-07T17:47:16.883Z,98656.56
2023-03-07T17:52:18.374Z,98660.59
2023-03-07T17:57:20.578Z,98670.16
2023-03-07T18:02:24.650Z,98671.72
2023-03-07T18:07:26.210Z,98685.75
2023-03-07T18:12:27.763Z,98684.94
2023-03-07T18:17:35.741Z,98685.75
2023-03-07T18:22:47.803Z,98682.00
2023-03-07T18:27:49.924Z,98688.25
2023-03-07T18:32:55.292Z,98688.75
2023-03-07T18:37:58.291Z,98698.19
2023-03-07T18:43:00.600Z,98706.31
2023-03-07T18:48:02.144Z,98716.59
2023-03-07T18:53:06.677Z,98719.81
2023-03-07T18:58:10.319Z,98722.75
2023-03-07T19:03:11.873Z,98737.66
2023-03-07T19:08:14.065Z,98745.81
2023-03-07T19:13:15.611Z,98743.91
2023-03-07T19:18:17.138Z,98744.38
2023-03-07T19:23:21.236Z,98751.69
2023-03-07T19:28:22.742Z,98748.41
2023-03-07T19:33:25.078Z,98746.75
2023-03-07T19:38:26.570Z,98747.81
2023-03-07T19:43:28.980Z,98757.84
2023-03-07T19:48:30.523Z,98761.38
2023-03-07T19:53:32.052Z,98767.53
2023-03-07T19:58:36.043Z,98770.72
2023-03-07T20:03:40.196Z,98762.34
2023-03-07T20:08:42.184Z,98760.66
2023-03-07T20:13:48.220Z,98759.63
2023-03-07T20:18:51.847Z,98754.78
2023-03-07T20:23:53.940Z,98763.16
2023-03-07T20:28:56.360Z,98763.88
2023-03-07T20:33:59.672Z,98791.25
2023-03-07T20:39:04.508Z,98792.31
2023-03-07T20:44:08.674Z,98791.72
2023-03-07T20:49:13.285Z,98791.38
2023-03-07T20:54:17.076Z,98788.28
2023-03-07T20:59:18.915Z,98791.34
2023-03-07T21:04:21.014Z,98788.84
2023-03-07T21:09:23.368Z,98796.13
2023-03-07T21:14:26.919Z,98816.22
2023-03-07T21:19:28.398Z,98833.88
2023-03-07T21:24:29.880Z,98826.28
2023-03-07T21:29:31.385Z,98823.88
2023-03-07T21:34:32.897Z,98832.38
2023-03-07T21:39:34.500Z,98834.94
2023-03-07T21:44:36.035Z,98837.94
2023-03-07T21:49:37.541Z,98832.19
2023-03-07T21:54:39.014Z,98836.25
2023-03-07T21:59:40.625Z,98834.94
2023-03-07T22:04:42.111Z,98846.41
2023-03-07T22:09:43.633Z,98852.88
2023-03-07T22:14:46.650Z,98846.25
2023-03-07T22:19:48.222Z,98856.50
2023-03-07T22:24:49.925Z,98859.81
2023-03-07T22:29:51.462Z,98853.78
2023-03-07T22:34:53.055Z,98825.47
2023-03-07T22:39:54.805Z,98828.19
2023-03-07T22:44:56.313Z,98820.75
2023-03-07T22:49:57.826Z,98839.72
2023-03-07T22:54:59.363Z,98840.78
2023-03-07T23:00:00.914Z,98848.69
2023-03-07T23:05:02.464Z,98856.84
2023-03-07T23:10:06.420Z,98856.84
2023-03-07T23:15:08.353Z,98842.44
2023-03-07T23:20:10.981Z,98841.38
2023-03-07T23:25:13.594Z,98847.28
2023-03-07T23:30:17.423Z,98842.66
2023-03-07T23:35:18.925Z,98857.66
2023-03-07T23:40:22.923Z,98866.66
2023-03-07T23:45:24.970Z,98863.47
2023-03-07T23:50:26.517Z,98866.16
2023-03-07T23:55:28.016Z,98873.88
